createdAt,value
2019-02-23T00:03:33.132Z,6.20
2019-02-23T00:08:37.495Z,6.03
2019-02-23T00:13:42.032Z,6.27
2019-02-23T00:18:46.406Z,6.07
2019-02-23T00:23:50.788Z,6.27
2019-02-23T00:28:56.217Z,6.23
2019-02-23T00:34:00.559Z,6.40
2019-02-23T00:39:06.175Z,6.13
2019-02-23T00:44:12.141Z,6.47
2019-02-23T00:49:16.526Z,6.90
2019-02-23T00:54:20.878Z,6.77
2019-02-23T00:59:25.249Z,6.80
2019-02-23T01:04:29.630Z,6.33
2019-02-23T01:09:34.019Z,6.90
2019-02-23T01:14:38.394Z,6.50
2019-02-23T01:19:47.821Z,6.70
2019-02-23T01:24:48.930Z,7.13
2019-02-23T01:29:53.306Z,6.77
2019-02-23T01:34:57.728Z,6.53
2019-02-23T01:40:02.179Z,6.53
2019-02-23T01:45:08.141Z,7.50
2019-02-23T01:50:12.599Z,6.67
2019-02-23T01:55:17.059Z,6.83
2019-02-23T02:00:22.191Z,6.80
2019-02-23T02:05:26.546Z,6.87
2019-02-23T02:10:31.059Z,7.23
2019-02-23T02:15:35.674Z,6.17
2019-02-23T02:20:40.134Z,6.80
2019-02-23T02:25:44.511Z,6.83
2019-02-23T02:30:49.828Z,6.60
2019-02-23T02:35:54.182Z,7.07
2019-02-23T02:40:58.556Z,7.20
2019-02-23T02:46:02.942Z,7.30
2019-02-23T02:51:07.298Z,7.00
2019-02-23T02:56:11.655Z,6.90
2019-02-23T03:01:16.042Z,7.93
2019-02-23T03:06:20.386Z,7.12
2019-02-23T03:11:24.954Z,7.37
2019-02-23T03:16:30.388Z,7.43
2019-02-23T03:21:34.850Z,7.57
2019-02-23T03:26:39.306Z,6.77
2019-02-23T03:31:43.685Z,7.13
2019-02-23T03:36:48.055Z,6.80
2019-02-23T03:41:52.396Z,6.73
2019-02-23T03:46:56.780Z,7.80
2019-02-23T03:52:01.194Z,7.23
2019-02-23T03:57:05.562Z,7.23
2019-02-23T04:02:10.031Z,6.57
2019-02-23T04:07:14.386Z,7.07
2019-02-23T04:12:18.738Z,7.43
2019-02-23T04:17:23.115Z,6.77
2019-02-23T04:22:27.578Z,7.00
2019-02-23T04:27:32.015Z,7.47
2019-02-23T04:32:36.455Z,7.23
2019-02-23T04:37:40.992Z,6.57
2019-02-23T04:42:45.347Z,7.10
2019-02-23T04:47:49.772Z,7.07
2019-02-23T04:52:54.150Z,6.77
2019-02-23T04:57:58.544Z,5.67
2019-02-23T05:03:02.913Z,6.67
2019-02-23T05:08:07.306Z,6.40
2019-02-23T05:13:11.638Z,6.50
2019-02-23T05:18:16.041Z,6.87
2019-02-23T05:23:20.393Z,6.40
2019-02-23T05:28:24.788Z,6.83
2019-02-23T05:33:29.325Z,6.67
2019-02-23T05:38:33.686Z,6.73
2019-02-23T05:43:38.142Z,7.03
2019-02-23T05:48:42.508Z,7.00
2019-02-23T05:53:46.900Z,7.10
2019-02-23T05:58:51.273Z,7.13
2019-02-23T06:03:55.632Z,7.13
2019-02-23T06:09:00.047Z,7.13
2019-02-23T06:14:06.040Z,8.00
2019-02-23T06:19:10.438Z,7.83
2019-02-23T06:24:14.788Z,7.30
2019-02-23T06:29:19.253Z,7.60
2019-02-23T06:34:23.617Z,6.77
2019-02-23T06:39:28.036Z,7.10
2019-02-23T06:44:32.465Z,6.90
2019-02-23T06:49:36.870Z,6.53
2019-02-23T06:54:41.628Z,6.73
2019-02-23T06:59:46.091Z,6.43
2019-02-23T07:04:50.456Z,7.53
2019-02-23T07:09:54.863Z,6.80
2019-02-23T07:15:00.358Z,6.33
2019-02-23T07:20:07.363Z,6.33
2019-02-23T07:25:11.726Z,6.40
2019-02-23T07:30:16.092Z,7.47
2019-02-23T07:35:20.561Z,6.70
2019-02-23T07:40:24.997Z,6.83
2019-02-23T07:45:29.428Z,6.70
2019-02-23T07:50:33.801Z,5.87
2019-02-23T07:55:38.162Z,6.60
2019-02-23T08:00:42.538Z,6.20
2019-02-23T08:05:46.884Z,6.20
2019-02-23T08:10:51.260Z,6.10
2019-02-23T08:15:55.707Z,6.50
2019-02-23T08:21:00.109Z,6.70
2019-02-23T08:26:04.559Z,6.80
2019-02-23T08:31:08.911Z,6.73
2019-02-23T08:36:13.271Z,6.37
2019-02-23T08:41:17.869Z,5.77
2019-02-23T08:46:22.307Z,6.77
2019-02-23T08:51:26.612Z,7.20
2019-02-23T08:56:31.154Z,7.27
2019-02-23T09:01:35.573Z,7.30
2019-02-23T09:06:39.933Z,6.37
2019-02-23T09:11:44.309Z,6.77
2019-02-23T09:16:48.664Z,7.10
2019-02-23T09:21:53.030Z,6.73
2019-02-23T09:26:57.377Z,7.03
2019-02-23T09:32:01.756Z,6.93
2019-02-23T09:37:06.090Z,6.83
2019-02-23T09:42:10.523Z,6.47
2019-02-23T09:47:14.944Z,6.60
2019-02-23T09:52:19.305Z,7.27
2019-02-23T09:57:23.669Z,7.20
2019-02-23T10:02:28.026Z,6.20
2019-02-23T10:07:32.380Z,6.60
2019-02-23T10:12:36.723Z,6.30
2019-02-23T10:17:41.103Z,6.40
2019-02-23T10:22:45.507Z,5.97
2019-02-23T10:27:49.878Z,5.63
2019-02-23T10:32:54.316Z,5.63
2019-02-23T10:37:58.784Z,5.87
2019-02-23T10:43:03.145Z,5.80
2019-02-23T10:48:08.587Z,5.80
2019-02-23T10:53:12.991Z,4.97
2019-02-23T10:58:18.435Z,5.47
2019-02-23T11:03:23.027Z,4.80
2019-02-23T11:08:27.468Z,4.60
2019-02-23T11:13:31.824Z,5.10
2019-02-23T11:18:36.467Z,4.30
2019-02-23T11:23:44.474Z,4.80
2019-02-23T11:28:47.991Z,3.53
2019-02-23T11:33:52.390Z,3.70
2019-02-23T11:38:56.752Z,3.93
2019-02-23T11:44:01.116Z,3.33
2019-02-23T11:49:08.141Z,3.10
2019-02-23T11:54:11.595Z,3.40
2019-02-23T11:59:15.979Z,3.33
2019-02-23T12:04:20.335Z,3.10
2019-02-23T12:09:24.729Z,3.10
2019-02-23T12:14:29.088Z,3.00
2019-02-23T12:19:33.423Z,2.67
2019-02-23T12:24:37.816Z,3.03
2019-02-23T12:29:42.183Z,2.77
2019-02-23T12:34:46.528Z,2.53
2019-02-23T12:39:50.892Z,2.77
2019-02-23T12:44:55.315Z,2.80
2019-02-23T12:49:59.702Z,2.60
2019-02-23T12:55:04.991Z,2.77
2019-02-23T13:00:14.905Z,2.63
2019-02-23T13:05:19.252Z,2.80
2019-02-23T13:10:23.590Z,2.60
2019-02-23T13:15:43.143Z,2.83
2019-02-23T13:20:59.646Z,2.40
2019-02-23T13:26:16.217Z,2.90
2019-02-23T13:31:50.419Z,3.33
2019-02-23T13:37:19.022Z,3.20
2019-02-23T13:42:44.600Z,3.10
2019-02-23T13:48:16.733Z,3.27
2019-02-23T13:53:36.142Z,3.70
2019-02-23T13:58:55.577Z,3.93
2019-02-23T14:04:15.378Z,3.77
2019-02-23T14:09:28.400Z,3.50
2019-02-23T14:14:38.735Z,3.87
2019-02-23T14:19:55.431Z,3.73
2019-02-23T14:25:15.172Z,3.70
2019-02-23T14:30:28.665Z,4.27
2019-02-23T14:35:42.045Z,4.20
2019-02-23T14:41:01.760Z,4.40
2019-02-23T14:46:12.123Z,4.13
2019-02-23T14:51:37.413Z,4.23
2019-02-23T14:57:10.699Z,4.37
2019-02-23T15:02:50.034Z,4.57
2019-02-23T15:08:18.460Z,4.27
2019-02-23T15:13:27.695Z,4.80
2019-02-23T15:18:38.001Z,5.50
2019-02-23T15:24:17.621Z,5.90
2019-02-23T15:29:40.196Z,5.50
2019-02-23T15:35:04.330Z,6.33
2019-02-23T15:40:29.806Z,6.07
2019-02-23T15:45:52.401Z,6.40
2019-02-23T15:50:56.859Z,5.47
2019-02-23T15:56:01.324Z,6.30
2019-02-23T16:01:06.066Z,5.57
2019-02-23T16:06:10.419Z,5.77
2019-02-23T16:11:15.866Z,5.57
2019-02-23T16:16:20.292Z,5.93
2019-02-23T16:21:24.674Z,6.30
2019-02-23T16:26:29.997Z,5.87
2019-02-23T16:31:34.433Z,6.10
2019-02-23T16:36:38.891Z,6.20
2019-02-23T16:41:43.377Z,6.13
2019-02-23T16:46:47.743Z,6.27
2019-02-23T16:51:52.135Z,6.20
2019-02-23T16:56:56.516Z,6.27
2019-02-23T17:02:00.907Z,6.33
2019-02-23T17:07:05.362Z,5.80
2019-02-23T17:12:09.811Z,6.03
2019-02-23T17:17:14.206Z,5.93
2019-02-23T17:22:19.645Z,5.97
2019-02-23T17:27:35.508Z,6.10
2019-02-23T17:32:30.102Z,7.20
2019-02-23T17:37:35.528Z,7.00
2019-02-23T17:42:39.863Z,7.03
2019-02-23T17:47:44.225Z,7.13
2019-02-23T17:52:48.579Z,6.33
2019-02-23T17:57:52.991Z,7.07
2019-02-23T18:02:57.361Z,7.53
2019-02-23T18:08:01.730Z,6.50
2019-02-23T18:13:06.175Z,7.00
2019-02-23T18:18:10.531Z,7.07
2019-02-23T18:23:16.696Z,7.23
2019-02-23T18:28:21.150Z,7.67
2019-02-23T18:33:25.551Z,8.47
2019-02-23T18:38:29.927Z,8.37
2019-02-23T18:43:34.340Z,8.43
2019-02-23T18:48:38.888Z,8.20
2019-02-23T18:53:43.507Z,7.73
2019-02-23T18:58:47.962Z,7.97
2019-02-23T19:03:52.286Z,7.30
2019-02-23T19:08:56.758Z,6.67
2019-02-23T19:14:01.282Z,7.23
2019-02-23T19:19:05.694Z,7.57
2019-02-23T19:24:10.111Z,7.00
2019-02-23T19:29:14.463Z,6.83
2019-02-23T19:34:18.811Z,7.00
2019-02-23T19:39:23.397Z,7.20
2019-02-23T19:44:27.750Z,6.83
2019-02-23T19:49:32.855Z,6.97
2019-02-23T19:54:37.238Z,7.53
2019-02-23T19:59:41.624Z,7.70
2019-02-23T20:04:46.151Z,7.63
2019-02-23T20:09:50.533Z,7.17
2019-02-23T20:14:54.920Z,7.00
2019-02-23T20:19:59.306Z,7.67
2019-02-23T20:25:03.689Z,7.57
2019-02-23T20:30:10.236Z,7.80
2019-02-23T20:35:14.776Z,7.43
2019-02-23T20:40:19.314Z,7.00
2019-02-23T20:45:23.683Z,7.43
2019-02-23T20:50:28.410Z,8.03
2019-02-23T20:55:32.747Z,7.77
2019-02-23T21:00:37.133Z,7.60
2019-02-23T21:05:41.479Z,7.47
2019-02-23T21:10:45.901Z,8.43
2019-02-23T21:15:50.456Z,8.38
2019-02-23T21:20:54.887Z,7.73
2019-02-23T21:25:59.261Z,8.43
2019-02-23T21:31:03.699Z,8.07
2019-02-23T21:36:08.223Z,8.37
2019-02-23T21:41:12.614Z,8.80
2019-02-23T21:46:17.034Z,7.77
2019-02-23T21:51:21.384Z,7.73
2019-02-23T21:56:25.765Z,7.67
2019-02-23T22:01:30.331Z,8.23
2019-02-23T22:06:34.975Z,7.67
2019-02-23T22:11:39.287Z,7.83
2019-02-23T22:16:43.725Z,8.03
2019-02-23T22:21:48.187Z,7.53
2019-02-23T22:26:52.524Z,7.97
2019-02-23T22:31:56.964Z,7.63
2019-02-23T22:37:01.421Z,7.93
2019-02-23T22:42:05.984Z,8.50
2019-02-23T22:47:10.477Z,8.23
2019-02-23T22:52:15.031Z,8.43
2019-02-23T22:57:19.403Z,8.27
2019-02-23T23:02:23.797Z,7.97
2019-02-23T23:07:28.435Z,8.60
2019-02-23T23:12:32.790Z,8.37
2019-02-23T23:17:38.112Z,8.73
2019-02-23T23:22:42.636Z,8.57
2019-02-23T23:27:49.532Z,8.63
2019-02-23T23:32:54.069Z,9.10
2019-02-23T23:37:58.490Z,8.90
2019-02-23T23:43:02.858Z,8.97
2019-02-23T23:48:07.231Z,8.93
2019-02-23T23:53:11.614Z,8.97
2019-02-23T23:58:16.037Z,9.57
